createdAt,value
2023-05-08T00:02:25.519Z,20.3
2023-05-08T00:12:27.379Z,19.8
2023-05-08T00:22:30.343Z,19.2
2023-05-08T00:32:32.773Z,19.2
2023-05-08T00:42:35.287Z,18.8
2023-05-08T00:52:37.738Z,18.2
2023-05-08T01:02:40.427Z,18.3
2023-05-08T01:12:42.658Z,17.8
2023-05-08T01:22:45.180Z,17.3
2023-05-08T01:32:47.180Z,17.6
2023-05-08T01:42:50.481Z,16.9
2023-05-08T01:52:52.494Z,16.6
2023-05-08T02:02:53.963Z,16.8
2023-05-08T02:12:57.025Z,16.6
2023-05-08T02:23:00.035Z,16.2
2023-05-08T02:33:01.141Z,16.2
2023-05-08T02:43:04.347Z,15.4
2023-05-08T02:53:07.407Z,15.4
2023-05-08T03:02:06.852Z,0
2023-05-08T03:12:08.484Z,15
2023-05-08T03:22:10.757Z,14.8
2023-05-08T03:32:12.717Z,14.8
2023-05-08T03:42:20.836Z,19.3
2023-05-08T03:52:38.735Z,17.9
2023-05-08T04:02:58.187Z,20.3
2023-05-08T04:13:18.468Z,19.4
2023-05-08T04:23:38.199Z,18.3
2023-05-08T04:33:57.112Z,20.2
2023-05-08T04:44:18.058Z,21.8
2023-05-08T04:54:39.005Z,21.8
2023-05-08T05:04:59.099Z,24.1
2023-05-08T05:15:19.412Z,24.3
2023-05-08T05:25:39.520Z,26.9
2023-05-08T05:35:59.773Z,29.9
2023-05-08T05:46:19.906Z,33.3
2023-05-08T05:56:38.502Z,33.7
2023-05-08T06:06:53.625Z,33.7
2023-05-08T06:17:11.173Z,33.7
2023-05-08T06:27:28.634Z,33.7
2023-05-08T06:37:44.280Z,33.7
2023-05-08T06:47:59.863Z,33.7
2023-05-08T06:58:16.030Z,33.7
2023-05-08T07:08:33.038Z,33.7
2023-05-08T07:18:50.100Z,33.7
2023-05-08T07:29:05.148Z,33.7
2023-05-08T07:39:18.778Z,33.7
2023-05-08T07:49:32.456Z,33.7
2023-05-08T07:59:46.680Z,33.7
2023-05-08T08:10:01.703Z,33.7
2023-05-08T08:20:17.793Z,33.7
2023-05-08T08:30:34.196Z,33.7
2023-05-08T08:40:51.937Z,33.7
2023-05-08T08:51:08.786Z,33.7
2023-05-08T09:02:09.442Z,0
2023-05-08T09:12:14.910Z,0
2023-05-08T09:22:15.991Z,0
2023-05-08T09:32:21.558Z,0
2023-05-08T09:42:26.991Z,0
2023-05-08T09:52:39.270Z,0
2023-05-08T10:02:53.637Z,0
2023-05-08T10:13:07.428Z,0
2023-05-08T10:23:21.812Z,0
2023-05-08T10:33:36.025Z,0
2023-05-08T10:43:50.221Z,0
2023-05-08T10:54:05.229Z,0
2023-05-08T11:04:19.052Z,0
2023-05-08T11:14:34.138Z,104.8
2023-05-08T11:24:51.290Z,105.3
2023-05-08T11:35:09.667Z,105.1
2023-05-08T11:45:22.859Z,105.4
2023-05-08T11:55:37.833Z,105.4
2023-05-08T12:05:55.243Z,105.4
2023-05-08T12:16:11.338Z,114.9
2023-05-08T12:26:21.101Z,118.8
2023-05-08T12:36:23.740Z,114.8
2023-05-08T12:46:27.257Z,117.4
2023-05-08T12:56:32.829Z,112.9
2023-05-08T13:06:43.254Z,106.2
2023-05-08T13:16:52.421Z,105.1
2023-05-08T13:26:52.811Z,105.1
2023-05-08T13:36:53.156Z,105.1
2023-05-08T13:46:52.010Z,105.1
2023-05-08T13:56:51.442Z,105.1
2023-05-08T14:06:50.862Z,105.1
2023-05-08T14:16:50.810Z,105.1
2023-05-08T14:26:50.919Z,105.1
2023-05-08T14:36:52.282Z,69.1
2023-05-08T14:46:53.491Z,67.4
2023-05-08T14:56:55.228Z,63.7
2023-05-08T15:02:08.854Z,61.7
2023-05-08T15:12:10.253Z,59.1
2023-05-08T15:22:11.395Z,57.8
2023-05-08T15:32:13.166Z,54.7
2023-05-08T15:42:14.499Z,51.9
2023-05-08T15:52:15.975Z,50.1
2023-05-08T16:02:17.928Z,48.2
2023-05-08T16:12:20.695Z,45
2023-05-08T16:22:23.251Z,43
2023-05-08T16:32:25.920Z,41.2
2023-05-08T16:42:28.430Z,39.6
2023-05-08T16:52:31.234Z,38.6
2023-05-08T17:02:33.258Z,38.6
2023-05-08T17:12:34.791Z,35.8
2023-05-08T17:22:36.086Z,34.6
2023-05-08T17:32:37.802Z,33.3
2023-05-08T17:42:39.181Z,31.8
2023-05-08T17:52:40.707Z,31.1
2023-05-08T18:02:41.956Z,29.8
2023-05-08T18:12:43.557Z,29.7
2023-05-08T18:22:44.758Z,27.9
2023-05-08T18:32:46.242Z,27.4
2023-05-08T18:42:47.580Z,27
2023-05-08T18:52:49.186Z,25.9
2023-05-08T19:02:50.579Z,25.1
2023-05-08T19:12:51.997Z,24.7
2023-05-08T19:22:53.111Z,24.3
2023-05-08T19:32:54.475Z,23.8
2023-05-08T19:42:55.853Z,22.9
2023-05-08T19:52:57.346Z,22.3
2023-05-08T20:02:58.709Z,21.8
2023-05-08T20:13:00.045Z,21.3
2023-05-08T20:23:01.305Z,20.8
2023-05-08T20:33:02.641Z,20.3
2023-05-08T20:43:03.347Z,20.3
2023-05-08T20:53:05.094Z,19.8
2023-05-08T21:02:09.016Z,19.5
2023-05-08T21:12:09.813Z,18.9
2023-05-08T21:22:10.396Z,18.4
2023-05-08T21:32:11.302Z,18.1
2023-05-08T21:42:14.929Z,17.8
2023-05-08T21:52:12.922Z,17.8
2023-05-08T22:02:14.162Z,17.5
2023-05-08T22:12:16.329Z,17.3
2023-05-08T22:22:18.428Z,17.1
2023-05-08T22:32:20.644Z,16.9
2023-05-08T22:42:22.596Z,16.9
2023-05-08T22:52:24.676Z,16.6
2023-05-08T23:02:26.215Z,16.4
2023-05-08T23:12:27.019Z,16.1
2023-05-08T23:22:27.696Z,16
2023-05-08T23:32:28.667Z,16.1
2023-05-08T23:42:29.350Z,15.8
2023-05-08T23:52:30.168Z,15.8
